createdAt,value
2019-03-26T00:00:52.481Z,4.60
2019-03-26T00:03:24.589Z,4.70
2019-03-26T00:05:55.025Z,4.70
2019-03-26T00:08:25.688Z,4.80
2019-03-26T00:11:01.061Z,4.80
2019-03-26T00:13:32.185Z,4.80
2019-03-26T00:16:02.935Z,4.80
2019-03-26T00:18:37.534Z,4.60
2019-03-26T00:21:07.991Z,4.70
2019-03-26T00:23:38.461Z,4.90
2019-03-26T00:26:13.829Z,4.80
2019-03-26T00:28:44.692Z,4.90
2019-03-26T00:31:15.211Z,4.90
2019-03-26T00:33:45.973Z,4.70
2019-03-26T00:36:22.622Z,4.80
2019-03-26T00:38:52.973Z,4.80
2019-03-26T00:41:23.444Z,4.90
2019-03-26T00:43:55.317Z,4.90
2019-03-26T00:46:28.237Z,4.90
2019-03-26T00:48:59.679Z,4.90
2019-03-26T00:51:30.430Z,4.80
2019-03-26T00:54:00.650Z,4.90
2019-03-26T01:01:45.415Z,4.90
2019-03-26T01:04:31.822Z,4.90
2019-03-26T01:06:51.584Z,4.80
2019-03-26T01:09:23.739Z,4.90
2019-03-26T01:11:54.333Z,4.80
2019-03-26T01:14:27.450Z,4.90
2019-03-26T01:16:58.558Z,4.90
2019-03-26T01:19:28.556Z,4.90
2019-03-26T01:21:59.093Z,4.80
2019-03-26T01:24:30.292Z,4.70
2019-03-26T01:27:01.515Z,4.70
2019-03-26T01:29:48.586Z,4.60
2019-03-26T01:32:18.969Z,4.80
2019-03-26T01:34:50.371Z,4.60
2019-03-26T01:37:21.289Z,4.70
2019-03-26T01:39:52.720Z,4.70
2019-03-26T01:42:24.138Z,4.70
2019-03-26T01:44:58.990Z,4.40
2019-03-26T01:47:30.201Z,4.40
2019-03-26T01:50:00.722Z,4.50
2019-03-26T01:52:30.984Z,4.60
2019-03-26T01:55:04.894Z,4.50
2019-03-26T01:57:35.789Z,4.60
2019-03-26T02:00:07.839Z,4.40
2019-03-26T02:02:39.292Z,4.50
2019-03-26T02:05:09.710Z,4.50
2019-03-26T02:07:40.278Z,4.60
2019-03-26T02:10:11.539Z,4.30
2019-03-26T02:12:42.659Z,4.20
2019-03-26T02:15:21.930Z,4.40
2019-03-26T02:17:52.590Z,4.60
2019-03-26T02:20:23.526Z,4.30
2019-03-26T02:22:57.396Z,4.30
2019-03-26T02:25:27.929Z,4.40
2019-03-26T02:28:03.163Z,4.40
2019-03-26T02:30:35.217Z,4.40
2019-03-26T02:33:07.482Z,4.50
2019-03-26T02:35:37.577Z,4.40
2019-03-26T02:38:13.152Z,4.30
2019-03-26T02:40:46.331Z,4.40
2019-03-26T02:43:17.010Z,4.40
2019-03-26T02:45:48.102Z,4.40
2019-03-26T02:48:18.684Z,4.40
2019-03-26T02:50:48.771Z,4.40
2019-03-26T02:53:19.407Z,4.30
2019-03-26T02:55:53.967Z,4.40
2019-03-26T02:58:27.657Z,4.30
2019-03-26T03:00:58.451Z,4.30
2019-03-26T03:03:29.015Z,4.10
2019-03-26T03:05:59.198Z,4.00
2019-03-26T03:08:29.136Z,4.10
2019-03-26T03:10:59.549Z,4.10
2019-03-26T03:13:31.917Z,4.10
2019-03-26T03:16:03.364Z,4.20
2019-03-26T03:18:34.503Z,4.20
2019-03-26T03:21:05.055Z,4.10
2019-03-26T03:23:35.871Z,4.10
2019-03-26T03:26:06.906Z,4.20
2019-03-26T03:28:38.352Z,4.10
2019-03-26T03:31:13.815Z,4.20
2019-03-26T03:33:44.354Z,4.20
2019-03-26T03:36:15.443Z,4.20
2019-03-26T03:38:48.341Z,4.20
2019-03-26T03:41:19.899Z,4.20
2019-03-26T03:43:50.826Z,4.20
2019-03-26T03:46:22.069Z,4.10
2019-03-26T03:48:59.785Z,4.20
2019-03-26T03:51:35.522Z,4.20
2019-03-26T03:54:08.164Z,4.20
2019-03-26T03:56:42.613Z,4.10
2019-03-26T04:02:03.516Z,4.20
2019-03-26T04:04:34.422Z,4.20
2019-03-26T04:07:08.591Z,4.20
2019-03-26T04:09:41.514Z,4.20
2019-03-26T04:12:19.691Z,4.20
2019-03-26T04:20:12.590Z,4.10
2019-03-26T04:22:44.852Z,4.00
2019-03-26T04:25:15.449Z,4.00
2019-03-26T04:27:46.734Z,4.10
2019-03-26T04:30:24.395Z,4.10
2019-03-26T04:32:55.455Z,4.00
2019-03-26T04:35:28.345Z,4.10
2019-03-26T04:38:00.645Z,4.20
2019-03-26T04:40:36.853Z,4.20
2019-03-26T04:43:07.589Z,4.10
2019-03-26T04:45:38.589Z,4.20
2019-03-26T04:48:08.745Z,4.30
2019-03-26T04:50:39.285Z,4.20
2019-03-26T04:53:09.659Z,4.20
2019-03-26T04:55:40.555Z,4.30
2019-03-26T04:58:10.800Z,4.20
2019-03-26T05:00:44.746Z,4.30
2019-03-26T05:03:15.079Z,4.30
2019-03-26T05:05:47.085Z,4.20
2019-03-26T05:08:18.190Z,4.20
2019-03-26T05:10:53.247Z,4.20
2019-03-26T05:13:32.558Z,4.30
2019-03-26T05:16:07.571Z,4.40
2019-03-26T05:18:41.605Z,4.40
2019-03-26T05:21:15.412Z,4.40
2019-03-26T05:23:45.943Z,4.40
2019-03-26T05:26:32.730Z,4.40
2019-03-26T05:29:22.509Z,4.40
2019-03-26T05:31:53.226Z,4.40
2019-03-26T05:34:44.627Z,4.40
2019-03-26T05:37:23.664Z,4.50
2019-03-26T05:39:54.516Z,4.60
2019-03-26T05:42:25.865Z,4.60
2019-03-26T05:44:56.230Z,4.50
2019-03-26T05:47:26.490Z,4.50
2019-03-26T05:55:08.838Z,4.40
2019-03-26T05:57:39.739Z,4.50
2019-03-26T06:00:16.870Z,4.60
2019-03-26T06:02:47.508Z,4.50
2019-03-26T06:05:17.671Z,4.60
2019-03-26T06:07:48.711Z,4.60
2019-03-26T06:10:18.672Z,4.70
2019-03-26T06:12:50.401Z,4.60
2019-03-26T06:15:20.420Z,4.50
2019-03-26T06:36:29.585Z,4.70
2019-03-26T06:42:44.435Z,4.60
2019-03-26T06:45:15.800Z,4.60
2019-03-26T06:47:47.059Z,4.60
2019-03-26T07:13:36.534Z,4.70
2019-03-26T07:20:58.969Z,4.80
2019-03-26T07:34:55.392Z,4.70
2019-03-26T07:37:43.918Z,4.80
2019-03-26T07:40:03.833Z,4.80
2019-03-26T07:42:38.284Z,4.80
2019-03-26T07:45:12.596Z,4.90
2019-03-26T07:47:48.985Z,5.00
2019-03-26T07:50:20.164Z,5.10
2019-03-26T07:53:17.810Z,5.20
2019-03-26T07:56:54.669Z,5.00
2019-03-26T08:15:29.312Z,5.30
2019-03-26T08:21:34.205Z,5.30
2019-03-26T08:27:01.797Z,5.40
2019-03-26T08:33:05.104Z,5.50
2019-03-26T08:35:38.278Z,5.50
2019-03-26T08:38:13.115Z,5.60
2019-03-26T08:40:41.652Z,5.60
2019-03-26T08:43:15.340Z,5.60
2019-03-26T08:45:57.960Z,5.60
2019-03-26T08:54:26.270Z,5.90
2019-03-26T08:56:59.673Z,6.10
2019-03-26T08:59:30.200Z,6.20
2019-03-26T09:06:21.409Z,6.30
2019-03-26T09:09:39.790Z,6.50
2019-03-26T09:15:14.783Z,6.40
2019-03-26T09:18:19.885Z,6.40
2019-03-26T09:20:53.281Z,6.40
2019-03-26T09:23:24.494Z,6.40
2019-03-26T09:31:46.271Z,6.40
2019-03-26T09:34:17.438Z,6.50
2019-03-26T09:36:48.048Z,6.60
2019-03-26T09:39:24.005Z,6.70
2019-03-26T09:41:55.107Z,6.80
2019-03-26T09:44:44.712Z,6.80
2019-03-26T09:52:41.610Z,7.10
2019-03-26T09:55:25.839Z,7.20
2019-03-26T09:58:01.559Z,7.10
2019-03-26T10:00:31.856Z,7.30
2019-03-26T10:03:12.760Z,7.40
2019-03-26T10:05:43.462Z,7.30
2019-03-26T10:08:13.903Z,7.10
2019-03-26T10:10:44.796Z,7.10
2019-03-26T10:13:16.086Z,7.00
2019-03-26T10:15:46.830Z,6.90
2019-03-26T10:18:21.035Z,6.70
2019-03-26T10:20:51.353Z,6.80
2019-03-26T10:23:23.889Z,7.00
2019-03-26T10:25:55.092Z,7.30
2019-03-26T10:28:26.806Z,7.20
2019-03-26T10:30:57.857Z,7.20
2019-03-26T10:33:28.935Z,7.30
2019-03-26T10:35:59.482Z,7.30
2019-03-26T10:38:33.977Z,7.20
2019-03-26T10:41:04.659Z,7.30
2019-03-26T10:43:35.871Z,7.40
2019-03-26T10:46:06.249Z,7.40
2019-03-26T10:48:36.555Z,7.40
2019-03-26T10:51:07.269Z,7.30
2019-03-26T10:53:38.426Z,7.40
2019-03-26T10:56:09.704Z,7.40
2019-03-26T10:58:40.275Z,7.50
2019-03-26T11:01:11.270Z,7.60
2019-03-26T11:03:41.460Z,7.60
2019-03-26T11:06:11.656Z,7.80
2019-03-26T11:08:45.213Z,7.80
2019-03-26T11:11:21.726Z,8.00
2019-03-26T11:13:52.378Z,8.10
2019-03-26T11:16:23.425Z,8.00
2019-03-26T11:18:54.750Z,7.80
2019-03-26T11:21:27.031Z,7.60
2019-03-26T11:24:03.940Z,7.60
2019-03-26T11:26:38.410Z,7.60
2019-03-26T11:32:13.753Z,7.80
2019-03-26T11:34:52.098Z,8.10
2019-03-26T11:37:27.947Z,8.40
2019-03-26T11:39:59.664Z,8.70
2019-03-26T11:42:31.243Z,8.60
2019-03-26T11:45:02.357Z,8.20
2019-03-26T11:47:33.135Z,8.00
2019-03-26T11:50:04.896Z,8.00
2019-03-26T11:52:35.360Z,7.80
2019-03-26T11:55:08.598Z,7.70
2019-03-26T11:57:39.393Z,7.60
2019-03-26T12:00:14.162Z,7.60
2019-03-26T12:02:44.590Z,7.70
2019-03-26T12:05:15.897Z,7.60
2019-03-26T12:07:46.875Z,7.60
2019-03-26T12:10:20.347Z,7.80
2019-03-26T12:13:02.794Z,7.80
2019-03-26T12:15:36.059Z,8.20
2019-03-26T12:18:13.485Z,8.40
2019-03-26T12:20:44.399Z,8.50
2019-03-26T12:23:21.004Z,8.60
2019-03-26T12:25:55.835Z,8.60
2019-03-26T12:28:27.342Z,8.90
2019-03-26T12:30:58.468Z,8.80
2019-03-26T12:33:29.050Z,8.80
2019-03-26T12:35:59.665Z,9.00
2019-03-26T12:38:39.057Z,8.90
2019-03-26T12:41:09.212Z,8.80
2019-03-26T12:43:39.655Z,8.80
2019-03-26T12:46:14.204Z,8.80
2019-03-26T12:49:43.868Z,9.10
2019-03-26T12:52:14.269Z,9.50
2019-03-26T12:55:01.094Z,9.50
2019-03-26T12:57:31.776Z,9.50
2019-03-26T13:02:38.023Z,9.40
2019-03-26T13:05:09.080Z,9.40
2019-03-26T13:07:39.929Z,9.40
2019-03-26T13:10:14.432Z,9.30
2019-03-26T13:12:46.839Z,9.40
2019-03-26T13:15:26.504Z,9.30
2019-03-26T13:17:57.879Z,9.10
2019-03-26T13:23:18.548Z,8.70
2019-03-26T13:25:49.045Z,8.80
2019-03-26T13:28:19.908Z,9.00
2019-03-26T13:30:51.008Z,9.20
2019-03-26T13:33:21.687Z,9.40
2019-03-26T13:35:52.149Z,9.50
2019-03-26T13:38:24.546Z,9.40
2019-03-26T13:40:59.290Z,9.10
2019-03-26T13:46:55.463Z,9.20
2019-03-26T13:49:26.843Z,9.20
2019-03-26T13:55:20.751Z,9.20
2019-03-26T14:00:37.578Z,8.70
2019-03-26T14:03:08.913Z,8.50
2019-03-26T14:05:39.738Z,8.50
2019-03-26T14:08:11.990Z,8.60
2019-03-26T14:12:06.158Z,8.80
2019-03-26T14:15:32.402Z,9.00
2019-03-26T14:18:04.564Z,9.10
2019-03-26T14:20:39.242Z,9.10
2019-03-26T14:23:11.664Z,8.90
2019-03-26T14:25:42.118Z,9.10
2019-03-26T14:28:13.154Z,9.10
2019-03-26T14:30:49.685Z,9.30
2019-03-26T14:33:44.410Z,9.40
2019-03-26T14:36:21.440Z,9.40
2019-03-26T14:43:11.366Z,9.40
2019-03-26T14:45:50.582Z,9.80
2019-03-26T14:51:11.260Z,9.70
2019-03-26T14:54:02.979Z,9.20
2019-03-26T14:56:38.819Z,8.90
2019-03-26T14:59:09.125Z,9.00
2019-03-26T15:01:42.471Z,9.10
2019-03-26T15:04:13.032Z,9.20
2019-03-26T15:06:43.306Z,9.30
2019-03-26T15:09:13.949Z,9.40
2019-03-26T15:11:44.265Z,9.20
2019-03-26T15:14:14.745Z,9.10
2019-03-26T15:16:45.396Z,9.00
2019-03-26T15:19:15.968Z,9.10
2019-03-26T15:21:46.822Z,9.00
2019-03-26T15:24:20.349Z,9.20
2019-03-26T15:26:54.799Z,9.20
2019-03-26T15:29:22.634Z,9.10
2019-03-26T15:31:53.012Z,8.90
2019-03-26T15:34:35.336Z,8.90
2019-03-26T15:36:57.964Z,8.90
2019-03-26T15:39:29.363Z,9.00
2019-03-26T15:42:03.296Z,8.90
2019-03-26T15:44:33.421Z,8.80
2019-03-26T15:47:03.914Z,8.80
2019-03-26T15:49:40.055Z,8.90
2019-03-26T15:52:11.250Z,8.80
2019-03-26T15:54:42.665Z,8.60
2019-03-26T15:57:13.068Z,8.50
2019-03-26T15:59:43.628Z,8.50
2019-03-26T16:02:14.145Z,8.50
2019-03-26T16:04:44.406Z,8.20
2019-03-26T16:07:14.590Z,8.30
2019-03-26T16:09:48.931Z,8.20
2019-03-26T16:12:40.556Z,8.20
2019-03-26T16:15:11.645Z,8.10
2019-03-26T16:17:42.682Z,8.10
2019-03-26T16:20:13.259Z,8.10
2019-03-26T16:22:48.276Z,8.20
2019-03-26T16:25:20.158Z,8.20
2019-03-26T16:27:51.722Z,8.20
2019-03-26T16:30:22.407Z,8.10
2019-03-26T16:32:59.859Z,8.20
2019-03-26T16:35:30.762Z,8.10
2019-03-26T16:38:01.052Z,8.10
2019-03-26T16:40:31.574Z,8.10
2019-03-26T16:47:08.019Z,8.00
2019-03-26T16:49:38.593Z,8.00
2019-03-26T16:52:09.275Z,8.00
2019-03-26T16:54:40.470Z,8.00
2019-03-26T16:57:11.654Z,7.90
2019-03-26T16:59:42.898Z,8.10
2019-03-26T17:02:13.569Z,7.90
2019-03-26T17:04:46.866Z,7.90
2019-03-26T17:07:16.850Z,7.90
2019-03-26T17:09:47.841Z,7.90
2019-03-26T17:12:19.034Z,7.80
2019-03-26T17:14:54.058Z,7.80
2019-03-26T17:17:24.649Z,7.70
2019-03-26T17:19:55.612Z,7.60
2019-03-26T17:27:51.909Z,7.40
2019-03-26T17:30:22.761Z,7.40
2019-03-26T17:32:53.183Z,7.40
2019-03-26T17:35:28.904Z,7.20
2019-03-26T17:40:38.856Z,7.10
2019-03-26T17:43:13.461Z,7.10
2019-03-26T17:45:44.233Z,7.10
2019-03-26T17:48:15.126Z,7.10
2019-03-26T17:50:46.534Z,7.20
2019-03-26T17:53:17.817Z,7.20
2019-03-26T17:55:49.165Z,7.10
2019-03-26T17:58:19.353Z,7.10
2019-03-26T18:00:49.664Z,7.10
2019-03-26T18:03:26.197Z,7.10
2019-03-26T18:05:52.262Z,7.10
2019-03-26T18:08:23.046Z,7.10
2019-03-26T18:17:16.015Z,7.20
2019-03-26T18:27:50.483Z,7.20
2019-03-26T18:37:17.076Z,6.90
2019-03-26T18:40:12.937Z,6.90
2019-03-26T18:42:48.595Z,7.00
2019-03-26T18:45:20.726Z,7.00
2019-03-26T18:47:51.555Z,7.00
2019-03-26T18:50:28.480Z,6.90
2019-03-26T18:52:59.486Z,6.90
2019-03-26T18:55:36.212Z,6.90
2019-03-26T18:59:18.376Z,6.90
2019-03-26T19:02:29.335Z,6.90
2019-03-26T19:05:25.347Z,6.80
2019-03-26T19:07:57.137Z,6.80
2019-03-26T19:10:29.570Z,6.70
2019-03-26T19:13:01.225Z,6.70
2019-03-26T19:18:17.245Z,6.80
2019-03-26T19:21:01.039Z,6.80
2019-03-26T19:23:21.149Z,6.80
2019-03-26T19:25:52.934Z,6.70
2019-03-26T19:28:26.988Z,6.70
2019-03-26T19:31:01.017Z,6.70
2019-03-26T19:33:35.426Z,6.70
2019-03-26T19:36:07.382Z,6.80
2019-03-26T19:38:50.264Z,6.80
2019-03-26T19:41:30.177Z,6.70
2019-03-26T19:44:01.112Z,6.60
2019-03-26T19:46:34.476Z,6.70
2019-03-26T19:49:04.847Z,6.70
2019-03-26T19:51:42.473Z,6.70
2019-03-26T19:54:16.949Z,6.70
2019-03-26T19:56:59.036Z,6.60
2019-03-26T19:59:29.779Z,6.70
2019-03-26T20:02:03.049Z,6.70
2019-03-26T20:04:34.692Z,6.70
2019-03-26T20:07:09.685Z,6.70
2019-03-26T20:09:40.593Z,6.70
2019-03-26T20:12:11.454Z,6.70
2019-03-26T20:14:42.424Z,6.70
2019-03-26T20:17:29.252Z,6.70
2019-03-26T20:20:08.217Z,6.70
2019-03-26T20:22:40.042Z,6.70
2019-03-26T20:33:32.658Z,6.40
2019-03-26T20:36:05.390Z,6.40
2019-03-26T20:38:36.840Z,6.40
2019-03-26T20:41:24.318Z,6.40
2019-03-26T20:44:10.425Z,6.30
2019-03-26T20:47:11.075Z,6.40
2019-03-26T20:50:40.584Z,6.40
2019-03-26T20:53:57.099Z,6.30
2019-03-26T20:56:32.356Z,6.20
2019-03-26T21:02:14.561Z,6.20
2019-03-26T21:12:24.652Z,6.20
2019-03-26T21:19:06.544Z,6.20
2019-03-26T21:21:43.290Z,6.20
2019-03-26T21:24:28.534Z,6.20
2019-03-26T21:26:58.928Z,6.20
2019-03-26T21:29:29.719Z,6.20
2019-03-26T21:32:02.374Z,6.20
2019-03-26T21:34:45.200Z,6.20
2019-03-26T21:37:30.411Z,6.20
2019-03-26T21:40:09.502Z,6.20
2019-03-26T21:42:46.061Z,6.20
2019-03-26T21:45:43.336Z,6.20
2019-03-26T21:48:13.940Z,6.10
2019-03-26T21:50:49.374Z,6.10
2019-03-26T21:53:21.070Z,6.20
2019-03-26T21:59:29.204Z,6.20
2019-03-26T22:05:33.510Z,6.00
2019-03-26T22:08:05.215Z,6.00
2019-03-26T22:10:36.755Z,6.10
2019-03-26T22:13:07.593Z,6.10
2019-03-26T22:15:55.471Z,6.00
2019-03-26T22:18:25.984Z,6.20
2019-03-26T22:21:03.786Z,6.10
2019-03-26T22:23:35.903Z,6.20
2019-03-26T22:26:14.181Z,6.10
2019-03-26T22:29:25.923Z,6.10
2019-03-26T22:32:04.679Z,6.20
2019-03-26T22:34:50.700Z,6.10
2019-03-26T22:37:25.457Z,6.10
2019-03-26T22:40:25.375Z,6.10
2019-03-26T22:43:02.528Z,6.10
2019-03-26T22:45:33.909Z,6.10
2019-03-26T22:48:45.028Z,6.10
2019-03-26T23:05:37.504Z,5.90
2019-03-26T23:08:08.240Z,6.00
2019-03-26T23:10:40.742Z,6.00
2019-03-26T23:13:11.062Z,6.00
2019-03-26T23:15:41.718Z,5.90
2019-03-26T23:21:23.329Z,6.00
2019-03-26T23:26:54.795Z,5.80
2019-03-26T23:29:34.161Z,5.80
2019-03-26T23:32:35.215Z,5.80
2019-03-26T23:36:10.267Z,5.80
2019-03-26T23:41:30.501Z,5.80
2019-03-26T23:44:06.952Z,5.70
2019-03-26T23:46:50.957Z,5.70
2019-03-26T23:52:26.787Z,5.80
2019-03-26T23:55:10.711Z,5.80
2019-03-26T23:57:51.308Z,5.80
